createdAt,value
2017-12-22T00:00:07.035Z,99659.03
2017-12-22T00:02:35.366Z,99657.73
2017-12-22T00:05:03.682Z,99661.39
2017-12-22T00:07:32.014Z,99659.05
2017-12-22T00:10:01.136Z,99656.89
2017-12-22T00:12:29.484Z,99665.75
2017-12-22T00:14:57.820Z,99659.43
2017-12-22T00:17:26.162Z,99657.39
2017-12-22T00:19:54.497Z,99653.50
2017-12-22T00:22:29.485Z,99654.24
2017-12-22T00:24:57.811Z,99651.88
2017-12-22T00:27:26.668Z,99653.79
2017-12-22T00:29:54.999Z,99654.58
2017-12-22T00:32:23.322Z,99651.02
2017-12-22T00:34:51.639Z,99651.75
2017-12-22T00:37:20.736Z,99647.42
2017-12-22T00:39:49.824Z,99650.86
2017-12-22T00:42:18.178Z,99651.53
2017-12-22T00:44:46.522Z,99655.04
2017-12-22T00:47:14.862Z,99650.53
2017-12-22T00:49:43.947Z,99642.34
2017-12-22T00:52:12.284Z,99645.42
2017-12-22T00:54:40.655Z,99655.77
2017-12-22T00:57:10.388Z,99654.48
2017-12-22T00:59:38.739Z,99653.03
2017-12-22T01:02:07.064Z,99650.80
2017-12-22T01:04:35.379Z,99657.46
2017-12-22T01:07:03.718Z,99658.01
2017-12-22T01:09:32.046Z,99659.19
2017-12-22T01:12:00.409Z,99657.90
2017-12-22T01:14:28.745Z,99655.80
2017-12-22T01:17:02.579Z,99660.15
2017-12-22T01:19:30.907Z,99654.00
2017-12-22T01:21:59.246Z,99646.21
2017-12-22T01:24:27.605Z,99650.56
2017-12-22T01:26:56.713Z,99657.44
2017-12-22T01:29:25.063Z,99657.72
2017-12-22T01:31:54.568Z,99656.45
2017-12-22T01:34:22.911Z,99661.17
2017-12-22T01:36:51.250Z,99649.69
2017-12-22T01:39:19.585Z,99650.70
2017-12-22T01:41:47.907Z,99644.53
2017-12-22T01:44:16.273Z,99643.00
2017-12-22T01:46:44.805Z,99640.87
2017-12-22T01:49:13.145Z,99637.61
2017-12-22T01:51:41.485Z,99635.67
2017-12-22T01:54:09.811Z,99642.66
2017-12-22T01:56:38.131Z,99639.36
2017-12-22T01:59:06.453Z,99634.95
2017-12-22T02:01:35.544Z,99626.98
2017-12-22T02:04:03.863Z,99621.42
2017-12-22T02:06:32.197Z,99624.53
2017-12-22T02:09:01.284Z,99621.09
2017-12-22T02:11:29.611Z,99605.64
2017-12-22T02:13:59.099Z,99619.67
2017-12-22T02:16:27.436Z,99619.75
2017-12-22T02:18:55.770Z,99625.64
2017-12-22T02:21:24.087Z,99628.53
2017-12-22T02:23:52.425Z,99621.47
2017-12-22T02:26:20.754Z,99619.22
2017-12-22T02:28:49.845Z,99620.51
2017-12-22T02:31:18.166Z,99616.98
2017-12-22T02:33:46.488Z,99619.13
2017-12-22T02:36:14.820Z,99622.09
2017-12-22T02:38:43.144Z,99613.66
2017-12-22T02:41:11.472Z,99614.98
2017-12-22T02:43:39.787Z,99613.37
2017-12-22T02:46:08.132Z,99606.01
2017-12-22T02:48:36.455Z,99613.73
2017-12-22T02:51:04.803Z,99610.88
2017-12-22T02:53:33.125Z,99610.55
2017-12-22T02:56:02.238Z,99610.45
2017-12-22T02:58:31.358Z,99608.56
2017-12-22T03:00:59.693Z,99609.41
2017-12-22T03:03:28.017Z,99608.92
2017-12-22T03:05:56.335Z,99602.92
2017-12-22T03:08:24.677Z,99606.52
2017-12-22T03:10:53.766Z,99604.28
2017-12-22T03:13:22.092Z,99596.80
2017-12-22T03:15:51.184Z,99593.19
2017-12-22T03:18:19.525Z,99591.36
2017-12-22T03:20:47.852Z,99583.75
2017-12-22T03:23:16.954Z,99595.61
2017-12-22T03:25:45.286Z,99586.61
2017-12-22T03:28:13.607Z,99587.45
2017-12-22T03:30:41.958Z,99585.46
2017-12-22T03:33:10.280Z,99584.13
2017-12-22T03:35:38.631Z,99579.53
2017-12-22T03:38:06.950Z,99570.20
2017-12-22T03:40:35.290Z,99566.65
2017-12-22T03:43:03.620Z,99566.80
2017-12-22T03:45:31.961Z,99562.86
2017-12-22T03:48:00.298Z,99558.28
2017-12-22T03:50:28.624Z,99561.02
2017-12-22T03:52:56.969Z,99559.89
2017-12-22T03:55:26.331Z,99548.86
2017-12-22T03:57:54.652Z,99547.69
2017-12-22T04:00:22.993Z,99547.89
2017-12-22T04:02:51.311Z,99545.15
2017-12-22T04:05:20.412Z,99545.05
2017-12-22T04:07:48.761Z,99538.20
2017-12-22T04:10:17.075Z,99538.16
2017-12-22T04:12:45.417Z,99540.25
2017-12-22T04:15:13.744Z,99534.63
2017-12-22T04:17:42.053Z,99543.80
2017-12-22T04:20:10.390Z,99544.94
2017-12-22T04:22:38.721Z,99547.52
2017-12-22T04:25:07.056Z,99549.45
2017-12-22T04:27:35.385Z,99547.88
2017-12-22T04:30:04.378Z,99552.32
2017-12-22T04:32:32.722Z,99542.73
2017-12-22T04:35:01.042Z,99543.92
2017-12-22T04:37:30.149Z,99545.06
2017-12-22T04:39:58.480Z,99547.62
2017-12-22T04:42:26.812Z,99532.91
2017-12-22T04:44:55.141Z,99537.56
2017-12-22T04:47:23.488Z,99538.55
2017-12-22T04:49:51.829Z,99538.38
2017-12-22T04:52:21.212Z,99542.50
2017-12-22T04:54:49.535Z,99547.24
2017-12-22T04:57:17.873Z,99541.06
2017-12-22T04:59:46.208Z,99539.68
2017-12-22T05:02:14.528Z,99539.26
2017-12-22T05:04:42.880Z,99543.63
2017-12-22T05:07:11.241Z,99546.77
2017-12-22T05:09:39.598Z,99550.92
2017-12-22T05:12:07.940Z,99544.20
2017-12-22T05:14:37.043Z,99544.16
2017-12-22T05:17:05.425Z,99532.92
2017-12-22T05:19:33.770Z,99535.13
2017-12-22T05:22:02.108Z,99539.31
2017-12-22T05:24:30.429Z,99536.70
2017-12-22T05:26:58.755Z,99537.56
2017-12-22T05:29:27.085Z,99528.37
2017-12-22T05:31:55.423Z,99540.30
2017-12-22T05:34:23.752Z,99540.84
2017-12-22T05:36:52.095Z,99539.80
2017-12-22T05:39:20.419Z,99539.05
2017-12-22T05:41:49.515Z,99535.63
2017-12-22T05:44:17.830Z,99536.27
2017-12-22T05:46:46.152Z,99540.33
2017-12-22T05:49:14.506Z,99540.66
2017-12-22T05:51:42.834Z,99543.20
2017-12-22T05:54:11.165Z,99540.25
2017-12-22T05:56:39.488Z,99539.65
2017-12-22T05:59:07.836Z,99543.73
2017-12-22T06:01:36.171Z,99544.78
2017-12-22T06:04:04.493Z,99545.59
2017-12-22T06:06:32.841Z,99541.83
2017-12-22T06:09:01.188Z,99542.91
2017-12-22T06:11:29.526Z,99546.58
2017-12-22T06:13:57.864Z,99545.90
2017-12-22T06:16:26.183Z,99549.77
2017-12-22T06:18:54.514Z,99532.74
2017-12-22T06:21:22.865Z,99557.33
2017-12-22T06:23:51.957Z,99558.63
2017-12-22T06:26:20.283Z,99556.03
2017-12-22T06:28:48.614Z,99557.20
2017-12-22T06:31:17.704Z,99559.61
2017-12-22T06:33:46.056Z,99551.37
2017-12-22T06:36:14.421Z,99553.47
2017-12-22T06:38:42.752Z,99555.70
2017-12-22T06:41:11.105Z,99556.17
2017-12-22T06:43:40.225Z,99562.28
2017-12-22T06:46:08.577Z,99562.29
2017-12-22T06:48:36.921Z,99562.32
2017-12-22T06:51:05.263Z,99558.92
2017-12-22T06:53:33.586Z,99558.44
2017-12-22T06:56:01.930Z,99568.46
2017-12-22T06:58:30.270Z,99570.29
2017-12-22T07:00:58.615Z,99568.74
2017-12-22T07:03:26.965Z,99568.52
2017-12-22T07:05:55.302Z,99572.44
2017-12-22T07:08:24.406Z,99564.00
2017-12-22T07:10:53.795Z,99565.55
2017-12-22T07:13:22.148Z,99559.33
2017-12-22T07:15:50.494Z,99557.75
2017-12-22T07:18:18.856Z,99554.30
2017-12-22T07:20:47.201Z,99557.42
2017-12-22T07:23:15.523Z,99554.41
2017-12-22T07:25:44.704Z,99560.31
2017-12-22T07:28:13.031Z,99563.30
2017-12-22T07:30:41.364Z,99559.18
2017-12-22T07:33:09.683Z,99534.45
2017-12-22T07:35:38.014Z,99566.99
2017-12-22T07:38:06.386Z,99568.09
2017-12-22T07:40:35.496Z,99574.63
2017-12-22T07:43:03.841Z,99570.20
2017-12-22T07:45:32.183Z,99567.47
2017-12-22T07:48:00.512Z,99568.55
2017-12-22T07:50:28.847Z,99576.33
2017-12-22T07:52:57.916Z,99569.59
2017-12-22T07:55:26.239Z,99575.05
2017-12-22T07:57:54.579Z,99584.43
2017-12-22T08:00:22.917Z,99583.18
2017-12-22T08:02:52.014Z,99574.50
2017-12-22T08:05:20.359Z,99579.58
2017-12-22T08:07:48.701Z,99580.91
2017-12-22T08:10:17.046Z,99588.05
2017-12-22T08:12:46.256Z,99589.16
2017-12-22T08:15:14.582Z,99594.92
2017-12-22T08:17:42.907Z,99603.67
2017-12-22T08:20:11.252Z,99599.48
2017-12-22T08:22:39.601Z,99606.45
2017-12-22T08:25:07.922Z,99608.87
2017-12-22T08:27:37.009Z,99605.34
2017-12-22T08:30:05.329Z,99611.84
2017-12-22T08:32:33.655Z,99608.65
2017-12-22T08:35:01.971Z,99607.64
2017-12-22T08:37:30.344Z,99607.50
2017-12-22T08:39:58.675Z,99608.12
2017-12-22T08:42:27.026Z,99601.22
2017-12-22T08:44:55.350Z,99606.88
2017-12-22T08:47:23.695Z,99610.77
2017-12-22T08:49:52.011Z,99614.42
2017-12-22T08:52:21.106Z,99614.75
2017-12-22T08:54:49.441Z,99620.93
2017-12-22T08:57:17.778Z,99618.21
2017-12-22T08:59:46.123Z,99625.69
2017-12-22T09:02:14.468Z,99632.14
2017-12-22T09:04:42.809Z,99633.17
2017-12-22T09:07:11.925Z,99642.07
2017-12-22T09:09:40.251Z,99646.70
2017-12-22T09:12:09.983Z,99649.52
2017-12-22T09:14:38.311Z,99649.31
2017-12-22T09:17:06.656Z,99649.36
2017-12-22T09:19:34.984Z,99651.24
2017-12-22T09:22:03.324Z,99650.23
2017-12-22T09:24:31.653Z,99650.29
2017-12-22T09:26:59.983Z,99656.00
2017-12-22T09:29:28.308Z,99656.79
2017-12-22T09:31:56.649Z,99657.77
2017-12-22T09:34:24.988Z,99660.10
2017-12-22T09:36:54.104Z,99654.39
2017-12-22T09:39:22.425Z,99651.29
2017-12-22T09:41:50.764Z,99651.41
2017-12-22T09:44:19.858Z,99645.98
2017-12-22T09:46:50.115Z,99655.20
2017-12-22T09:49:18.467Z,99652.78
2017-12-22T09:51:46.802Z,99652.73
2017-12-22T09:54:15.145Z,99648.98
2017-12-22T09:56:44.228Z,99652.80
2017-12-22T09:59:12.638Z,99651.63
2017-12-22T10:01:40.964Z,99655.92
2017-12-22T10:04:09.305Z,99662.78
2017-12-22T10:06:37.652Z,99661.96
2017-12-22T10:09:05.987Z,99659.44
2017-12-22T10:11:34.314Z,99661.52
2017-12-22T10:14:02.663Z,99658.87
2017-12-22T10:16:31.011Z,99659.93
2017-12-22T10:18:59.357Z,99658.96
2017-12-22T10:21:27.705Z,99660.98
2017-12-22T10:23:56.079Z,99654.16
2017-12-22T10:26:24.400Z,99649.78
2017-12-22T10:28:52.728Z,99652.30
2017-12-22T10:31:21.078Z,99650.52
2017-12-22T10:33:49.399Z,99645.75
2017-12-22T10:36:17.728Z,99634.16
2017-12-22T10:38:46.057Z,99630.15
2017-12-22T10:41:14.383Z,99625.30
2017-12-22T10:43:42.720Z,99622.92
2017-12-22T10:46:11.838Z,99618.84
2017-12-22T10:48:40.168Z,99620.81
2017-12-22T10:51:08.571Z,99617.28
2017-12-22T10:53:36.904Z,99623.14
2017-12-22T10:56:05.871Z,99630.44
2017-12-22T10:58:34.204Z,99627.61
2017-12-22T11:01:02.541Z,99624.62
2017-12-22T11:03:30.867Z,99629.19
2017-12-22T11:05:59.195Z,99628.11
2017-12-22T11:08:27.538Z,99612.72
2017-12-22T11:10:55.880Z,99619.55
2017-12-22T11:13:24.209Z,99617.34
2017-12-22T11:15:52.564Z,99620.07
2017-12-22T11:18:20.902Z,99629.48
2017-12-22T11:20:49.240Z,99633.53
2017-12-22T11:23:18.345Z,99632.74
2017-12-22T11:25:48.696Z,99631.38
2017-12-22T11:28:17.025Z,99630.14
2017-12-22T11:30:45.364Z,99630.52
2017-12-22T11:33:13.699Z,99630.30
2017-12-22T11:35:42.037Z,99635.81
2017-12-22T11:38:10.358Z,99631.48
2017-12-22T11:40:39.642Z,99623.88
2017-12-22T11:43:08.772Z,99635.84
2017-12-22T11:45:37.114Z,99632.83
2017-12-22T11:48:05.463Z,99626.64
2017-12-22T11:50:34.669Z,99631.00
2017-12-22T11:53:03.000Z,99630.11
2017-12-22T11:55:31.351Z,99636.45
2017-12-22T11:58:00.440Z,99632.66
2017-12-22T12:00:28.782Z,99636.27
2017-12-22T12:02:57.116Z,99637.39
2017-12-22T12:05:25.506Z,99637.95
2017-12-22T12:07:53.871Z,99642.33
2017-12-22T12:10:22.275Z,99639.59
2017-12-22T12:12:50.655Z,99642.51
2017-12-22T12:15:19.002Z,99639.58
2017-12-22T12:17:47.446Z,99632.09
2017-12-22T12:20:15.767Z,99632.83
2017-12-22T12:22:44.117Z,99627.23
2017-12-22T12:25:12.464Z,99628.34
2017-12-22T12:27:40.816Z,99637.53
2017-12-22T12:30:09.153Z,99633.16
2017-12-22T12:32:37.503Z,99633.31
2017-12-22T12:35:05.864Z,99642.59
2017-12-22T12:37:34.217Z,99640.88
2017-12-22T12:40:03.349Z,99628.43
2017-12-22T12:42:31.695Z,99616.30
2017-12-22T12:45:00.048Z,99598.80
2017-12-22T12:47:28.409Z,99612.89
2017-12-22T12:49:56.777Z,99609.91
2017-12-22T12:52:25.134Z,99606.51
2017-12-22T12:54:53.483Z,99604.70
2017-12-22T12:57:21.849Z,99606.09
2017-12-22T12:59:50.944Z,99607.89
2017-12-22T13:02:19.280Z,99614.45
2017-12-22T13:04:48.128Z,99611.57
2017-12-22T13:07:16.491Z,99610.98
2017-12-22T13:09:44.814Z,99601.80
2017-12-22T13:12:13.160Z,99613.47
2017-12-22T13:14:41.535Z,99612.19
2017-12-22T13:17:09.893Z,99612.83
2017-12-22T13:19:38.225Z,99619.22
2017-12-22T13:22:06.599Z,99623.64
2017-12-22T13:24:34.944Z,99618.06
2017-12-22T13:27:03.321Z,99615.91
2017-12-22T13:29:31.667Z,99603.47
2017-12-22T13:32:00.039Z,99602.89
2017-12-22T13:34:28.383Z,99597.77
2017-12-22T13:36:56.719Z,99602.33
2017-12-22T13:39:25.061Z,99591.91
2017-12-22T13:41:53.387Z,99590.26
2017-12-22T13:44:21.723Z,99596.31
2017-12-22T13:46:50.063Z,99598.23
2017-12-22T13:49:18.410Z,99604.80
2017-12-22T13:51:47.535Z,99607.13
2017-12-22T13:54:15.890Z,99605.50
2017-12-22T13:56:45.391Z,99600.08
2017-12-22T13:59:14.495Z,99599.05
2017-12-22T14:01:42.839Z,99597.52
2017-12-22T14:04:11.176Z,99603.02
2017-12-22T14:06:41.055Z,99601.22
2017-12-22T14:09:10.151Z,99607.48
2017-12-22T14:11:38.505Z,99603.11
2017-12-22T14:14:06.843Z,99608.08
2017-12-22T14:16:35.175Z,99610.21
2017-12-22T14:19:04.276Z,99615.67
2017-12-22T14:21:32.689Z,99619.42
2017-12-22T14:24:01.034Z,99614.81
2017-12-22T14:26:29.398Z,99618.23
2017-12-22T14:28:59.013Z,99623.89
2017-12-22T14:31:28.130Z,99630.04
2017-12-22T14:33:56.470Z,99623.62
2017-12-22T14:36:24.814Z,99625.33
2017-12-22T14:38:53.148Z,99624.65
2017-12-22T14:41:22.255Z,99626.13
2017-12-22T14:43:50.591Z,99625.84
2017-12-22T14:46:19.789Z,99623.55
2017-12-22T14:48:48.131Z,99625.86
2017-12-22T14:51:16.455Z,99633.67
2017-12-22T14:53:44.782Z,99635.80
2017-12-22T14:56:13.101Z,99629.58
2017-12-22T14:58:41.445Z,99618.27
2017-12-22T15:01:09.797Z,99622.59
2017-12-22T15:03:38.173Z,99622.95
2017-12-22T15:06:06.513Z,99614.72
2017-12-22T15:08:35.985Z,99617.35
2017-12-22T15:11:04.322Z,99610.16
2017-12-22T15:13:32.664Z,99607.77
2017-12-22T15:16:01.007Z,99606.70
2017-12-22T15:18:29.362Z,99623.20
2017-12-22T15:20:57.714Z,99620.12
2017-12-22T15:23:26.043Z,99621.27
2017-12-22T15:25:54.393Z,99624.95
2017-12-22T15:28:23.550Z,99629.63
2017-12-22T15:30:51.887Z,99631.26
2017-12-22T15:33:20.242Z,99634.58
2017-12-22T15:35:48.589Z,99646.16
2017-12-22T15:38:16.927Z,99646.77
2017-12-22T15:40:45.262Z,99641.50
2017-12-22T15:43:14.364Z,99643.48
2017-12-22T15:45:42.724Z,99647.55
2017-12-22T15:48:11.813Z,99651.20
2017-12-22T15:50:40.159Z,99654.74
2017-12-22T15:53:08.505Z,99661.22
2017-12-22T15:55:36.838Z,99653.98
2017-12-22T15:58:05.189Z,99659.66
2017-12-22T16:00:34.252Z,99663.30
2017-12-22T16:03:02.599Z,99666.56
2017-12-22T16:05:30.936Z,99669.70
2017-12-22T16:07:59.279Z,99670.91
2017-12-22T16:10:28.381Z,99674.56
2017-12-22T16:12:56.731Z,99679.35
2017-12-22T16:15:25.064Z,99684.72
2017-12-22T16:17:53.401Z,99691.38
2017-12-22T16:20:22.486Z,99686.58
2017-12-22T16:22:50.845Z,99682.27
2017-12-22T16:25:19.193Z,99680.03
2017-12-22T16:27:47.530Z,99689.45
2017-12-22T16:30:16.652Z,99691.81
2017-12-22T16:32:45.001Z,99693.32
2017-12-22T16:35:13.331Z,99699.03
2017-12-22T16:37:41.679Z,99701.38
2017-12-22T16:40:10.587Z,99703.33
2017-12-22T16:42:38.911Z,99705.88
2017-12-22T16:45:07.261Z,99709.99
2017-12-22T16:47:35.616Z,99714.95
2017-12-22T16:50:03.999Z,99718.28
2017-12-22T16:52:32.300Z,99723.43
2017-12-22T16:55:00.655Z,99719.10
2017-12-22T16:57:29.005Z,99721.52
2017-12-22T16:59:57.355Z,99718.77
2017-12-22T17:02:25.697Z,99731.97
2017-12-22T17:04:54.026Z,99728.80
2017-12-22T17:07:22.383Z,99735.38
2017-12-22T17:09:50.716Z,99740.36
2017-12-22T17:12:19.055Z,99755.55
2017-12-22T17:14:47.406Z,99752.56
2017-12-22T17:17:16.457Z,99753.00
2017-12-22T17:19:44.802Z,99754.30
2017-12-22T17:22:13.130Z,99751.63
2017-12-22T17:24:41.478Z,99748.36
2017-12-22T17:27:10.589Z,99753.20
2017-12-22T17:29:38.929Z,99746.91
2017-12-22T17:32:07.277Z,99741.71
2017-12-22T17:34:35.595Z,99740.89
2017-12-22T17:37:04.683Z,99746.33
2017-12-22T17:39:33.019Z,99748.39
2017-12-22T17:42:01.355Z,99742.73
2017-12-22T17:44:30.457Z,99747.59
2017-12-22T17:46:58.815Z,99749.84
2017-12-22T17:49:27.158Z,99750.44
2017-12-22T17:51:55.514Z,99757.71
2017-12-22T17:54:23.857Z,99759.77
2017-12-22T17:56:52.979Z,99769.91
2017-12-22T17:59:21.306Z,99762.88
2017-12-22T18:01:49.662Z,99746.06
2017-12-22T18:04:18.906Z,99756.77
2017-12-22T18:06:48.925Z,99766.30
2017-12-22T18:09:17.257Z,99767.39
2017-12-22T18:11:45.618Z,99769.45
2017-12-22T18:14:13.961Z,99772.62
2017-12-22T18:16:44.179Z,99778.24
2017-12-22T18:19:13.293Z,99772.02
2017-12-22T18:21:41.654Z,99774.00
2017-12-22T18:24:10.005Z,99775.97
2017-12-22T18:26:38.338Z,99768.53
2017-12-22T18:29:06.678Z,99774.84
2017-12-22T18:31:35.790Z,99779.38
2017-12-22T18:34:04.157Z,99772.97
2017-12-22T18:36:32.494Z,99779.02
2017-12-22T18:39:00.810Z,99776.56
2017-12-22T18:41:29.930Z,99769.55
2017-12-22T18:43:58.299Z,99776.72
2017-12-22T18:46:26.617Z,99772.53
2017-12-22T18:48:54.967Z,99776.50
2017-12-22T18:51:23.294Z,99780.50
2017-12-22T18:53:51.631Z,99780.06
2017-12-22T18:56:19.964Z,99789.26
2017-12-22T18:58:48.328Z,99785.78
2017-12-22T19:01:16.788Z,99790.67
2017-12-22T19:03:45.149Z,99783.95
2017-12-22T19:06:13.519Z,99786.36
2017-12-22T19:08:41.901Z,99789.19
2017-12-22T19:11:10.431Z,99789.23
2017-12-22T19:13:38.931Z,99792.17
2017-12-22T19:16:07.415Z,99785.59
2017-12-22T19:18:36.044Z,99789.13
2017-12-22T19:21:04.712Z,99790.10
2017-12-22T19:23:33.242Z,99796.33
2017-12-22T19:26:01.766Z,99799.94
2017-12-22T19:28:30.240Z,99799.27
2017-12-22T19:30:58.685Z,99800.75
2017-12-22T19:33:27.582Z,99794.58
2017-12-22T19:35:56.836Z,99789.82
2017-12-22T19:38:26.890Z,99778.19
2017-12-22T19:40:55.983Z,99779.23
2017-12-22T19:43:24.741Z,99777.27
2017-12-22T19:45:53.658Z,99778.41
2017-12-22T19:48:23.315Z,99783.81
2017-12-22T19:50:54.051Z,99777.56
2017-12-22T19:53:23.802Z,99783.36
2017-12-22T19:55:54.544Z,99788.55
2017-12-22T19:58:24.241Z,99798.09
2017-12-22T20:00:54.143Z,99800.94
2017-12-22T20:03:30.435Z,99800.47
2017-12-22T20:05:59.926Z,99802.75
2017-12-22T20:08:29.813Z,99802.73
2017-12-22T20:11:00.392Z,99805.06
2017-12-22T20:13:30.197Z,99808.13
2017-12-22T20:15:59.930Z,99805.55
2017-12-22T20:18:29.450Z,99814.97
2017-12-22T20:20:59.854Z,99811.94
2017-12-22T20:23:29.412Z,99819.63
2017-12-22T20:25:58.673Z,99815.20
2017-12-22T20:28:28.137Z,99822.66
2017-12-22T20:30:57.099Z,99827.68
2017-12-22T20:33:27.555Z,99825.16
2017-12-22T20:35:57.974Z,99823.69
2017-12-22T20:38:27.613Z,99826.16
2017-12-22T20:40:57.353Z,99820.27
2017-12-22T20:43:27.018Z,99827.66
2017-12-22T20:45:56.910Z,99828.79
2017-12-22T20:48:26.724Z,99834.39
2017-12-22T20:50:56.543Z,99821.88
2017-12-22T20:53:26.294Z,99834.33
2017-12-22T20:55:56.155Z,99832.16
2017-12-22T20:58:25.868Z,99824.83
2017-12-22T21:00:56.428Z,99831.47
2017-12-22T21:03:32.232Z,99835.88
2017-12-22T21:06:02.130Z,99836.20
2017-12-22T21:08:32.010Z,99837.45
2017-12-22T21:11:01.863Z,99840.02
2017-12-22T21:13:32.350Z,99837.56
2017-12-22T21:16:02.106Z,99834.27
2017-12-22T21:18:32.713Z,99835.66
2017-12-22T21:21:02.536Z,99830.91
2017-12-22T21:23:32.452Z,99823.94
2017-12-22T21:26:02.570Z,99822.77
2017-12-22T21:28:33.188Z,99820.72
2017-12-22T21:31:02.963Z,99814.49
2017-12-22T21:33:32.676Z,99816.89
2017-12-22T21:36:02.503Z,99813.38
2017-12-22T21:38:32.312Z,99814.70
2017-12-22T21:41:01.962Z,99811.31
2017-12-22T21:43:31.803Z,99814.45
2017-12-22T21:46:01.671Z,99819.33
2017-12-22T21:48:31.382Z,99823.48
2017-12-22T21:51:01.181Z,99824.11
2017-12-22T21:53:31.011Z,99818.94
2017-12-22T21:56:00.980Z,99822.96
2017-12-22T21:58:31.256Z,99829.05
2017-12-22T22:01:00.940Z,99827.11
2017-12-22T22:03:30.395Z,99832.72
2017-12-22T22:06:00.789Z,99834.94
2017-12-22T22:08:30.281Z,99839.67
2017-12-22T22:10:59.212Z,99830.84
2017-12-22T22:13:28.401Z,99830.31
2017-12-22T22:15:59.472Z,99835.22
2017-12-22T22:18:28.150Z,99838.62
2017-12-22T22:20:58.424Z,99835.20
2017-12-22T22:23:27.158Z,99837.11
2017-12-22T22:25:55.895Z,99834.31
2017-12-22T22:28:24.430Z,99833.03
2017-12-22T22:30:52.818Z,99834.22
2017-12-22T22:33:21.176Z,99842.69
2017-12-22T22:35:49.524Z,99844.77
2017-12-22T22:38:17.860Z,99848.80
2017-12-22T22:40:47.511Z,99845.66
2017-12-22T22:43:15.917Z,99847.00
2017-12-22T22:45:44.262Z,99847.89
2017-12-22T22:48:13.368Z,99854.01
2017-12-22T22:50:41.713Z,99853.70
2017-12-22T22:53:10.050Z,99847.58
2017-12-22T22:55:38.384Z,99853.19
2017-12-22T22:58:07.523Z,99852.33
2017-12-22T23:00:35.862Z,99841.56
2017-12-22T23:03:04.199Z,99840.66
2017-12-22T23:05:32.606Z,99837.77
2017-12-22T23:08:00.969Z,99825.05
2017-12-22T23:10:29.307Z,99815.73
2017-12-22T23:12:57.652Z,99814.73
2017-12-22T23:15:26.743Z,99807.27
2017-12-22T23:17:55.852Z,99818.69
2017-12-22T23:20:24.221Z,99811.37
2017-12-22T23:22:52.561Z,99809.67
2017-12-22T23:25:20.895Z,99811.70
2017-12-22T23:27:49.241Z,99820.25
2017-12-22T23:30:17.582Z,99819.15
2017-12-22T23:32:45.923Z,99816.28
2017-12-22T23:35:14.261Z,99816.65
2017-12-22T23:37:42.613Z,99814.51
2017-12-22T23:40:10.948Z,99818.05
2017-12-22T23:42:39.271Z,99812.52
2017-12-22T23:45:07.610Z,99812.41
2017-12-22T23:47:35.945Z,99816.36
2017-12-22T23:50:04.276Z,99808.36
2017-12-22T23:52:32.603Z,99799.39
2017-12-22T23:55:00.937Z,99808.63
2017-12-22T23:57:29.272Z,99815.63
2017-12-22T23:59:57.622Z,99808.02
